createdAt,value
2022-10-16T00:00:53.278Z,12.60
2022-10-16T00:03:38.522Z,12.50
2022-10-16T00:06:10.404Z,12.50
2022-10-16T00:08:43.162Z,12.50
2022-10-16T00:11:16.589Z,12.60
2022-10-16T00:13:51.008Z,12.50
2022-10-16T00:16:25.282Z,12.50
2022-10-16T00:18:57.105Z,12.50
2022-10-16T00:21:30.345Z,12.50
2022-10-16T00:24:20.505Z,12.40
2022-10-16T00:26:54.426Z,12.50
2022-10-16T00:29:25.972Z,12.50
2022-10-16T00:31:59.896Z,12.40
2022-10-16T00:34:31.437Z,12.50
2022-10-16T00:37:02.780Z,12.40
2022-10-16T00:39:34.266Z,12.40
2022-10-16T00:42:05.508Z,12.30
2022-10-16T00:44:48.653Z,12.30
2022-10-16T00:47:26.620Z,12.20
2022-10-16T00:50:03.900Z,12.20
2022-10-16T00:52:35.289Z,12.20
2022-10-16T00:55:08.664Z,12.10
2022-10-16T00:57:40.229Z,12.10
2022-10-16T01:00:14.947Z,12.10
2022-10-16T01:02:48.682Z,12.10
2022-10-16T01:05:21.644Z,12.10
2022-10-16T01:08:02.145Z,11.90
2022-10-16T01:10:38.842Z,11.90
2022-10-16T01:13:11.884Z,11.90
2022-10-16T01:15:48.546Z,11.80
2022-10-16T01:18:30.741Z,11.80
2022-10-16T01:21:05.007Z,11.80
2022-10-16T01:23:47.845Z,11.80
2022-10-16T01:26:34.970Z,11.70
2022-10-16T01:29:15.593Z,11.80
2022-10-16T01:31:52.281Z,11.70
2022-10-16T01:34:28.394Z,11.70
2022-10-16T01:37:06.255Z,11.70
2022-10-16T01:39:41.214Z,11.70
2022-10-16T01:42:17.349Z,11.60
2022-10-16T01:44:52.939Z,11.60
2022-10-16T01:47:28.275Z,11.60
2022-10-16T01:50:01.854Z,11.60
2022-10-16T01:52:33.893Z,11.50
2022-10-16T01:55:10.750Z,11.50
2022-10-16T01:57:45.392Z,11.50
2022-10-16T02:00:23.788Z,11.50
2022-10-16T02:02:58.021Z,11.40
2022-10-16T02:05:33.194Z,11.40
2022-10-16T02:08:05.709Z,11.40
2022-10-16T02:10:38.448Z,11.40
2022-10-16T02:13:13.768Z,11.30
2022-10-16T02:15:47.479Z,11.30
2022-10-16T02:18:19.295Z,11.30
2022-10-16T02:20:56.813Z,11.20
2022-10-16T02:23:37.124Z,11.20
2022-10-16T02:26:11.001Z,11.20
2022-10-16T02:28:49.316Z,11.10
2022-10-16T02:31:28.905Z,11.10
2022-10-16T02:34:02.987Z,11.00
2022-10-16T02:36:34.627Z,11.00
2022-10-16T02:39:07.060Z,11.00
2022-10-16T02:41:38.301Z,11.00
2022-10-16T02:44:09.732Z,10.90
2022-10-16T02:46:43.657Z,10.90
2022-10-16T02:49:15.130Z,10.90
2022-10-16T02:51:46.292Z,10.80
2022-10-16T02:54:17.702Z,10.80
2022-10-16T02:56:48.882Z,10.80
2022-10-16T02:59:20.410Z,10.70
2022-10-16T03:01:54.315Z,10.70
2022-10-16T03:04:25.681Z,10.70
2022-10-16T03:06:56.853Z,10.70
2022-10-16T03:09:28.356Z,10.60
2022-10-16T03:11:59.531Z,10.60
2022-10-16T03:14:32.388Z,10.50
2022-10-16T03:17:06.078Z,10.50
2022-10-16T03:19:37.659Z,10.40
2022-10-16T03:22:09.618Z,10.30
2022-10-16T03:24:41.138Z,10.30
2022-10-16T03:27:12.319Z,10.30
2022-10-16T03:29:43.768Z,10.30
2022-10-16T03:32:17.498Z,10.30
2022-10-16T03:34:49.025Z,10.30
2022-10-16T03:37:20.210Z,10.20
2022-10-16T03:39:51.774Z,10.20
2022-10-16T03:42:23.241Z,10.20
2022-10-16T03:44:54.633Z,10.10
2022-10-16T03:47:28.901Z,10.10
2022-10-16T03:50:00.678Z,10.10
2022-10-16T03:52:34.250Z,10.10
2022-10-16T03:55:05.803Z,10.00
2022-10-16T03:57:37.019Z,10.00
2022-10-16T04:00:09.790Z,9.90
2022-10-16T04:05:37.873Z,9.90
2022-10-16T04:08:08.998Z,9.80
2022-10-16T04:10:40.446Z,9.80
2022-10-16T04:13:11.545Z,9.80
2022-10-16T04:15:43.049Z,9.80
2022-10-16T04:18:16.856Z,9.80
2022-10-16T04:20:48.241Z,9.70
2022-10-16T04:23:19.575Z,9.70
2022-10-16T04:25:51.031Z,9.70
2022-10-16T04:28:22.333Z,9.70
2022-10-16T04:30:53.782Z,9.70
2022-10-16T04:33:27.611Z,9.70
2022-10-16T04:36:03.110Z,9.70
2022-10-16T04:38:34.318Z,9.70
2022-10-16T04:41:05.717Z,9.60
2022-10-16T04:43:37.120Z,9.70
2022-10-16T04:46:08.841Z,9.70
2022-10-16T04:48:42.869Z,9.70
2022-10-16T04:51:14.214Z,9.70
2022-10-16T04:53:45.431Z,9.70
2022-10-16T04:56:17.107Z,9.70
2022-10-16T04:58:48.218Z,9.70
2022-10-16T05:01:19.671Z,9.70
2022-10-16T05:03:53.513Z,9.70
2022-10-16T05:06:24.887Z,9.70
2022-10-16T05:08:56.402Z,9.70
2022-10-16T05:11:27.910Z,9.70
2022-10-16T05:13:59.230Z,9.80
2022-10-16T05:16:31.401Z,9.80
2022-10-16T05:19:26.232Z,9.80
2022-10-16T05:21:56.359Z,9.80
2022-10-16T05:24:27.794Z,9.80
2022-10-16T05:26:59.336Z,9.80
2022-10-16T05:29:30.839Z,9.80
2022-10-16T05:32:02.623Z,9.90
2022-10-16T05:34:36.577Z,9.90
2022-10-16T05:37:08.449Z,10.00
2022-10-16T05:39:40.251Z,10.00
2022-10-16T05:42:12.000Z,10.10
2022-10-16T05:44:43.155Z,10.10
2022-10-16T05:47:16.985Z,10.20
2022-10-16T05:49:50.867Z,10.30
2022-10-16T05:52:22.314Z,10.40
2022-10-16T05:54:53.504Z,10.40
2022-10-16T05:57:26.091Z,10.50
2022-10-16T05:59:57.559Z,10.50
2022-10-16T06:02:29.030Z,10.50
2022-10-16T06:05:02.794Z,10.50
2022-10-16T06:07:38.285Z,10.60
2022-10-16T06:10:11.413Z,10.60
2022-10-16T06:12:42.765Z,10.70
2022-10-16T06:15:14.254Z,10.80
2022-10-16T06:17:45.671Z,10.90
2022-10-16T06:20:19.500Z,11.10
2022-10-16T06:22:50.878Z,11.30
2022-10-16T06:25:22.249Z,11.40
2022-10-16T06:27:53.730Z,11.70
2022-10-16T06:30:24.905Z,11.90
2022-10-16T06:35:49.999Z,12.50
2022-10-16T06:38:21.466Z,12.50
2022-10-16T06:40:52.595Z,12.60
2022-10-16T06:43:24.026Z,12.60
2022-10-16T06:45:56.760Z,12.70
2022-10-16T06:48:29.634Z,12.90
2022-10-16T06:54:05.905Z,13.30
2022-10-16T06:56:37.629Z,13.60
2022-10-16T06:59:09.541Z,13.90
2022-10-16T07:01:41.036Z,14.10
2022-10-16T07:04:12.689Z,14.10
2022-10-16T07:06:46.449Z,14.50
2022-10-16T07:09:19.061Z,14.80
2022-10-16T07:11:53.118Z,14.90
2022-10-16T07:14:26.088Z,15.10
2022-10-16T07:16:57.682Z,15.30
2022-10-16T07:19:31.909Z,15.50
2022-10-16T07:22:07.743Z,15.70
2022-10-16T07:24:39.206Z,15.70
2022-10-16T07:27:10.343Z,15.70
2022-10-16T07:29:41.751Z,15.70
2022-10-16T07:32:12.948Z,15.70
2022-10-16T07:34:44.615Z,15.90
2022-10-16T07:37:18.381Z,16.00
2022-10-16T07:39:49.737Z,15.90
2022-10-16T07:42:21.271Z,16.00
2022-10-16T07:44:52.765Z,15.90
2022-10-16T07:47:24.289Z,15.90
2022-10-16T07:49:55.954Z,16.00
2022-10-16T07:52:29.913Z,16.10
2022-10-16T07:55:01.273Z,16.60
2022-10-16T07:57:32.833Z,16.40
2022-10-16T08:00:04.286Z,16.30
2022-10-16T08:02:43.444Z,16.50
2022-10-16T08:05:14.870Z,16.50
2022-10-16T08:07:52.688Z,16.30
2022-10-16T08:10:26.544Z,16.40
2022-10-16T08:12:58.083Z,15.90
2022-10-16T08:15:29.533Z,15.90
2022-10-16T08:18:01.793Z,16.00
2022-10-16T08:20:34.168Z,15.80
2022-10-16T08:23:09.872Z,15.90
2022-10-16T08:25:41.744Z,16.20
2022-10-16T08:28:15.064Z,16.60
2022-10-16T08:30:46.572Z,16.80
2022-10-16T08:33:18.146Z,17.00
2022-10-16T08:35:55.462Z,17.00
2022-10-16T08:38:29.389Z,17.00
2022-10-16T08:41:13.683Z,16.80
2022-10-16T08:44:16.616Z,17.00
2022-10-16T08:47:09.473Z,17.50
2022-10-16T08:52:53.091Z,17.60
2022-10-16T08:55:42.441Z,17.50
2022-10-16T08:58:17.598Z,17.70
2022-10-16T09:01:15.898Z,17.70
2022-10-16T09:04:08.461Z,17.90
2022-10-16T09:06:48.570Z,17.60
2022-10-16T09:09:39.511Z,17.40
2022-10-16T09:12:20.583Z,17.70
2022-10-16T09:15:02.639Z,17.70
2022-10-16T09:17:50.855Z,17.50
2022-10-16T09:20:32.018Z,17.40
2022-10-16T09:23:20.115Z,17.40
2022-10-16T09:25:53.678Z,17.50
2022-10-16T09:28:27.644Z,17.70
2022-10-16T09:30:59.192Z,17.70
2022-10-16T09:33:36.960Z,17.30
2022-10-16T09:36:09.951Z,17.20
2022-10-16T09:38:41.594Z,17.20
2022-10-16T09:41:21.063Z,17.10
2022-10-16T09:43:58.477Z,17.20
2022-10-16T09:46:31.888Z,17.30
2022-10-16T09:49:04.701Z,17.40
2022-10-16T09:51:38.227Z,17.20
2022-10-16T09:54:19.703Z,17.30
2022-10-16T09:56:53.139Z,17.50
2022-10-16T09:59:28.311Z,17.40
2022-10-16T10:02:02.018Z,17.80
2022-10-16T10:04:43.537Z,17.90
2022-10-16T10:07:22.631Z,17.80
2022-10-16T10:09:53.853Z,17.60
2022-10-16T10:12:27.647Z,17.60
2022-10-16T10:15:07.714Z,17.80
2022-10-16T10:17:50.902Z,17.70
2022-10-16T10:20:32.223Z,17.70
2022-10-16T10:23:04.712Z,17.60
2022-10-16T10:25:43.067Z,17.60
2022-10-16T10:28:29.027Z,17.50
2022-10-16T10:31:08.716Z,17.60
2022-10-16T10:33:48.362Z,17.50
2022-10-16T10:36:31.755Z,17.80
2022-10-16T10:39:05.426Z,18.00
2022-10-16T10:42:05.083Z,17.70
2022-10-16T10:45:07.179Z,17.90
2022-10-16T10:47:51.162Z,18.00
2022-10-16T10:50:29.157Z,17.90
2022-10-16T10:53:13.381Z,17.90
2022-10-16T10:55:49.819Z,17.60
2022-10-16T10:58:48.660Z,17.70
2022-10-16T11:01:22.896Z,17.70
2022-10-16T11:04:38.536Z,18.00
2022-10-16T11:07:19.628Z,17.70
2022-10-16T11:09:55.845Z,17.90
2022-10-16T11:12:33.673Z,17.80
2022-10-16T11:15:15.471Z,17.80
2022-10-16T11:17:51.851Z,18.00
2022-10-16T11:20:26.682Z,18.10
2022-10-16T11:23:05.024Z,18.20
2022-10-16T11:25:37.213Z,18.00
2022-10-16T11:28:15.406Z,18.20
2022-10-16T11:30:51.346Z,18.00
2022-10-16T11:33:36.282Z,18.00
2022-10-16T11:36:15.683Z,18.00
2022-10-16T11:38:57.812Z,17.90
2022-10-16T11:41:33.879Z,18.00
2022-10-16T11:44:19.922Z,18.00
2022-10-16T11:47:28.806Z,17.90
2022-10-16T11:49:57.195Z,18.30
2022-10-16T11:52:35.731Z,18.50
2022-10-16T11:55:19.330Z,18.60
2022-10-16T11:57:54.023Z,18.90
2022-10-16T12:00:28.551Z,19.00
2022-10-16T12:03:09.526Z,18.70
2022-10-16T12:05:59.374Z,18.60
2022-10-16T12:08:31.394Z,18.50
2022-10-16T12:11:26.141Z,18.70
2022-10-16T12:14:09.434Z,19.00
2022-10-16T12:16:42.477Z,18.70
2022-10-16T12:19:17.725Z,18.70
2022-10-16T12:21:50.270Z,18.70
2022-10-16T12:24:35.282Z,18.70
2022-10-16T12:27:22.835Z,18.60
2022-10-16T12:30:00.209Z,18.70
2022-10-16T12:32:46.741Z,18.90
2022-10-16T12:35:24.911Z,18.80
2022-10-16T12:37:57.238Z,18.80
2022-10-16T12:40:32.427Z,18.90
2022-10-16T12:43:30.479Z,18.80
2022-10-16T12:46:24.459Z,18.80
2022-10-16T12:49:06.586Z,18.90
2022-10-16T12:51:40.932Z,19.00
2022-10-16T12:54:18.308Z,19.00
2022-10-16T12:57:00.930Z,18.90
2022-10-16T12:59:48.301Z,18.80
2022-10-16T13:02:52.694Z,18.70
2022-10-16T13:05:38.940Z,18.40
2022-10-16T13:08:30.423Z,18.10
2022-10-16T13:11:09.338Z,18.10
2022-10-16T13:14:07.533Z,18.10
2022-10-16T13:16:53.721Z,18.10
2022-10-16T13:19:33.212Z,18.30
2022-10-16T13:22:10.331Z,18.20
2022-10-16T13:24:53.604Z,18.00
2022-10-16T13:27:35.050Z,18.00
2022-10-16T13:30:16.541Z,18.00
2022-10-16T13:35:54.165Z,17.90
2022-10-16T13:38:28.215Z,18.00
2022-10-16T13:41:01.685Z,17.80
2022-10-16T13:43:37.942Z,18.10
2022-10-16T13:46:15.516Z,18.00
2022-10-16T13:49:00.819Z,18.10
2022-10-16T13:51:33.043Z,17.80
2022-10-16T13:54:04.565Z,17.80
2022-10-16T13:56:37.015Z,17.80
2022-10-16T13:59:27.820Z,17.90
2022-10-16T14:02:01.305Z,17.90
2022-10-16T14:04:36.995Z,17.80
2022-10-16T14:07:08.989Z,17.70
2022-10-16T14:09:41.046Z,17.60
2022-10-16T14:12:16.234Z,18.00
2022-10-16T14:14:50.244Z,18.00
2022-10-16T14:17:24.731Z,18.30
2022-10-16T14:20:02.568Z,18.30
2022-10-16T14:22:38.031Z,18.50
2022-10-16T14:25:27.553Z,18.10
2022-10-16T14:28:07.694Z,18.10
2022-10-16T14:30:40.112Z,17.90
2022-10-16T14:33:25.758Z,17.80
2022-10-16T14:36:08.876Z,17.70
2022-10-16T14:38:41.240Z,17.70
2022-10-16T14:41:13.586Z,17.90
2022-10-16T14:43:51.539Z,17.80
2022-10-16T14:46:27.186Z,17.60
2022-10-16T14:49:04.990Z,17.70
2022-10-16T14:51:39.717Z,17.90
2022-10-16T14:54:13.227Z,18.00
2022-10-16T14:56:51.808Z,18.30
2022-10-16T14:59:28.874Z,18.20
2022-10-16T15:02:00.460Z,18.00
2022-10-16T15:04:31.701Z,18.00
2022-10-16T15:07:05.775Z,18.00
2022-10-16T15:09:37.007Z,18.00
2022-10-16T15:12:09.644Z,17.90
2022-10-16T15:14:41.646Z,18.00
2022-10-16T15:17:15.475Z,17.80
2022-10-16T15:19:48.722Z,17.60
2022-10-16T15:22:24.473Z,17.60
2022-10-16T15:24:55.906Z,17.70
2022-10-16T15:27:28.051Z,17.60
2022-10-16T15:29:59.875Z,17.70
2022-10-16T15:32:31.391Z,17.60
2022-10-16T15:35:02.719Z,17.50
2022-10-16T15:37:37.128Z,17.40
2022-10-16T15:40:09.773Z,17.30
2022-10-16T15:42:41.244Z,17.20
2022-10-16T15:45:14.291Z,17.00
2022-10-16T15:47:46.625Z,16.80
2022-10-16T15:50:20.256Z,16.80
2022-10-16T15:52:55.300Z,16.60
2022-10-16T15:55:27.095Z,16.60
2022-10-16T15:57:58.271Z,16.60
2022-10-16T16:00:29.289Z,16.40
2022-10-16T16:03:00.805Z,16.40
2022-10-16T16:05:32.287Z,16.30
2022-10-16T16:08:06.434Z,16.30
2022-10-16T16:10:37.679Z,16.20
2022-10-16T16:13:09.352Z,16.20
2022-10-16T16:15:44.415Z,16.10
2022-10-16T16:18:15.840Z,16.10
2022-10-16T16:20:47.128Z,16.00
2022-10-16T16:23:21.301Z,16.00
2022-10-16T16:26:08.662Z,16.00
2022-10-16T16:28:40.212Z,16.00
2022-10-16T16:31:12.058Z,16.00
2022-10-16T16:33:43.331Z,16.00
2022-10-16T16:36:16.293Z,15.90
2022-10-16T16:38:51.004Z,15.80
2022-10-16T16:41:24.564Z,15.70
2022-10-16T16:43:56.474Z,15.70
2022-10-16T16:46:27.813Z,15.70
2022-10-16T16:49:01.644Z,15.70
2022-10-16T16:51:36.978Z,15.60
2022-10-16T16:54:15.891Z,15.60
2022-10-16T16:56:47.706Z,15.50
2022-10-16T16:59:23.131Z,15.40
2022-10-16T17:01:57.138Z,15.40
2022-10-16T17:04:29.153Z,15.30
2022-10-16T17:07:00.664Z,15.20
2022-10-16T17:09:36.360Z,15.10
2022-10-16T17:12:07.941Z,15.10
2022-10-16T17:14:39.433Z,15.00
2022-10-16T17:17:10.789Z,15.00
2022-10-16T17:19:42.361Z,15.00
2022-10-16T17:22:13.555Z,14.90
2022-10-16T17:24:47.856Z,15.00
2022-10-16T17:27:20.219Z,14.90
2022-10-16T17:29:55.334Z,14.80
2022-10-16T17:32:27.005Z,14.80
2022-10-16T17:34:58.751Z,14.80
2022-10-16T17:37:30.408Z,14.80
2022-10-16T17:40:04.743Z,14.80
2022-10-16T17:42:35.984Z,14.80
2022-10-16T17:45:09.050Z,14.80
2022-10-16T17:47:42.061Z,14.80
2022-10-16T17:50:15.710Z,14.80
2022-10-16T17:52:47.285Z,14.80
2022-10-16T17:55:24.931Z,14.80
2022-10-16T17:57:58.609Z,14.80
2022-10-16T18:00:31.459Z,14.80
2022-10-16T18:03:02.896Z,14.80
2022-10-16T18:05:34.434Z,14.80
2022-10-16T18:08:05.776Z,14.80
2022-10-16T18:10:40.055Z,14.80
2022-10-16T18:13:12.031Z,14.90
2022-10-16T18:15:43.212Z,14.90
2022-10-16T18:18:14.645Z,14.90
2022-10-16T18:20:46.230Z,14.80
2022-10-16T18:23:18.102Z,14.80
2022-10-16T18:25:56.239Z,14.80
2022-10-16T18:28:28.533Z,14.80
2022-10-16T18:31:01.725Z,14.80
2022-10-16T18:33:34.443Z,14.80
2022-10-16T18:36:07.454Z,14.80
2022-10-16T18:38:39.939Z,14.80
2022-10-16T18:41:14.425Z,14.70
2022-10-16T18:43:48.078Z,14.70
2022-10-16T18:46:21.097Z,14.70
2022-10-16T18:48:54.526Z,14.70
2022-10-16T18:51:29.538Z,14.70
2022-10-16T18:54:03.787Z,14.70
2022-10-16T18:56:39.065Z,14.70
2022-10-16T18:59:12.144Z,14.60
2022-10-16T19:01:44.760Z,14.60
2022-10-16T19:04:17.159Z,14.50
2022-10-16T19:06:50.691Z,14.50
2022-10-16T19:09:24.082Z,14.40
2022-10-16T19:11:59.922Z,14.30
2022-10-16T19:14:33.090Z,14.30
2022-10-16T19:17:04.662Z,14.30
2022-10-16T19:19:38.526Z,14.20
2022-10-16T19:22:28.231Z,14.20
2022-10-16T19:25:00.990Z,14.10
2022-10-16T19:27:35.366Z,14.10
2022-10-16T19:30:07.700Z,14.00
2022-10-16T19:32:39.951Z,13.90
2022-10-16T19:35:12.792Z,13.90
2022-10-16T19:37:44.497Z,13.90
2022-10-16T19:40:15.806Z,13.70
2022-10-16T19:42:50.769Z,13.60
2022-10-16T19:45:22.303Z,13.50
2022-10-16T19:47:54.265Z,13.40
2022-10-16T19:50:25.835Z,13.40
2022-10-16T19:52:57.992Z,13.30
2022-10-16T19:55:29.697Z,13.30
2022-10-16T19:58:04.086Z,13.30
2022-10-16T20:00:35.677Z,13.20
2022-10-16T20:03:07.807Z,13.20
2022-10-16T20:05:39.610Z,13.20
2022-10-16T20:08:11.236Z,13.20
2022-10-16T20:10:42.550Z,13.20
2022-10-16T20:13:17.040Z,13.20
2022-10-16T20:15:48.990Z,13.20
2022-10-16T20:18:21.287Z,13.20
2022-10-16T20:20:53.534Z,13.20
2022-10-16T20:23:25.802Z,13.10
2022-10-16T20:25:59.161Z,13.00
2022-10-16T20:28:35.678Z,12.90
2022-10-16T20:31:12.178Z,12.90
2022-10-16T20:33:43.908Z,12.90
2022-10-16T20:36:16.262Z,12.80
2022-10-16T20:38:48.452Z,12.70
2022-10-16T20:41:21.234Z,12.70
2022-10-16T20:43:56.019Z,12.70
2022-10-16T20:46:29.124Z,12.60
2022-10-16T20:49:11.188Z,12.60
2022-10-16T20:51:53.242Z,12.50
2022-10-16T20:54:24.875Z,12.50
2022-10-16T20:56:56.088Z,12.40
2022-10-16T20:59:30.231Z,12.40
2022-10-16T21:02:01.495Z,12.40
2022-10-16T21:04:34.177Z,12.30
2022-10-16T21:07:05.040Z,12.30
2022-10-16T21:09:36.350Z,12.30
2022-10-16T21:12:07.765Z,12.20
2022-10-16T21:14:51.085Z,12.20
2022-10-16T21:17:34.259Z,12.10
2022-10-16T21:20:05.941Z,12.20
2022-10-16T21:22:37.198Z,12.20
2022-10-16T21:25:09.785Z,12.20
2022-10-16T21:27:41.486Z,12.20
2022-10-16T21:30:16.033Z,12.10
2022-10-16T21:32:47.293Z,12.00
2022-10-16T21:35:18.902Z,12.00
2022-10-16T21:37:52.164Z,11.90
2022-10-16T21:40:23.640Z,11.90
2022-10-16T21:42:55.079Z,11.80
2022-10-16T21:45:29.114Z,11.80
2022-10-16T21:48:00.329Z,11.80
2022-10-16T21:50:31.713Z,11.80
2022-10-16T21:53:02.933Z,11.70
2022-10-16T21:55:38.425Z,11.70
2022-10-16T21:58:09.561Z,11.70
2022-10-16T22:00:43.624Z,11.70
2022-10-16T22:03:14.881Z,11.70
2022-10-16T22:05:46.539Z,11.70
2022-10-16T22:08:18.727Z,11.80
2022-10-16T22:10:50.151Z,11.70
2022-10-16T22:13:21.274Z,11.60
2022-10-16T22:15:56.215Z,11.60
2022-10-16T22:18:27.573Z,11.50
2022-10-16T22:20:59.091Z,11.50
2022-10-16T22:23:30.347Z,11.50
2022-10-16T22:26:02.949Z,11.50
2022-10-16T22:28:33.936Z,11.50
2022-10-16T22:31:09.677Z,11.40
2022-10-16T22:33:41.311Z,11.40
2022-10-16T22:36:16.249Z,11.30
2022-10-16T22:38:47.475Z,11.30
2022-10-16T22:41:19.599Z,11.30
2022-10-16T22:43:51.852Z,11.20
2022-10-16T22:46:28.479Z,11.20
2022-10-16T22:49:00.043Z,11.20
2022-10-16T22:51:31.647Z,11.20
2022-10-16T22:54:02.851Z,11.20
2022-10-16T22:56:34.455Z,11.20
2022-10-16T22:59:05.854Z,11.30
2022-10-16T23:01:42.316Z,11.30
2022-10-16T23:04:13.497Z,11.20
2022-10-16T23:06:44.980Z,11.20
2022-10-16T23:09:16.143Z,11.10
2022-10-16T23:11:47.486Z,11.10
2022-10-16T23:14:23.297Z,11.10
2022-10-16T23:16:57.401Z,11.00
2022-10-16T23:19:28.655Z,11.00
2022-10-16T23:22:00.031Z,11.00
2022-10-16T23:24:33.026Z,10.90
2022-10-16T23:27:04.513Z,10.90
2022-10-16T23:29:36.000Z,10.90
2022-10-16T23:32:09.997Z,10.80
2022-10-16T23:34:41.202Z,10.80
2022-10-16T23:37:12.658Z,10.80
2022-10-16T23:39:43.830Z,10.80
2022-10-16T23:42:15.427Z,10.80
2022-10-16T23:44:46.644Z,10.80
2022-10-16T23:47:20.619Z,10.80
2022-10-16T23:49:51.832Z,10.80
2022-10-16T23:52:23.373Z,10.70
2022-10-16T23:54:54.650Z,10.70
2022-10-16T23:57:26.370Z,10.70
2022-10-16T23:59:57.767Z,10.70
